sensor_id;sensor_type;location;lat;lon;timestamp;P1;durP1;ratioP1;P2;durP2;ratioP2
66384;SDS011;53426;55.872;37.462;2023-03-29T00:01:12;6.78;;;6.07;;
66384;SDS011;53426;55.872;37.462;2023-03-29T00:03:38;7.95;;;4.93;;
66384;SDS011;53426;55.872;37.462;2023-03-29T00:06:04;9.93;;;6.28;;
66384;SDS011;53426;55.872;37.462;2023-03-29T00:08:31;10.88;;;7.60;;
66384;SDS011;53426;55.872;37.462;2023-03-29T00:11:02;12.43;;;7.00;;
66384;SDS011;53426;55.872;37.462;2023-03-29T00:13:28;8.48;;;6.90;;
66384;SDS011;53426;55.872;37.462;2023-03-29T00:15:55;9.05;;;7.53;;
66384;SDS011;53426;55.872;37.462;2023-03-29T00:18:21;9.13;;;6.70;;
66384;SDS011;53426;55.872;37.462;2023-03-29T00:20:54;7.20;;;6.50;;
66384;SDS011;53426;55.872;37.462;2023-03-29T00:23:20;7.15;;;5.93;;
66384;SDS011;53426;55.872;37.462;2023-03-29T00:25:47;8.60;;;7.60;;
66384;SDS011;53426;55.872;37.462;2023-03-29T00:28:13;10.05;;;8.10;;
66384;SDS011;53426;55.872;37.462;2023-03-29T00:30:39;9.35;;;7.65;;
66384;SDS011;53426;55.872;37.462;2023-03-29T00:33:05;8.48;;;6.75;;
66384;SDS011;53426;55.872;37.462;2023-03-29T00:35:32;9.65;;;7.00;;
66384;SDS011;53426;55.872;37.462;2023-03-29T00:37:58;11.07;;;7.38;;
66384;SDS011;53426;55.872;37.462;2023-03-29T00:40:23;6.97;;;6.28;;
66384;SDS011;53426;55.872;37.462;2023-03-29T00:42:50;8.43;;;6.32;;
66384;SDS011;53426;55.872;37.462;2023-03-29T00:47:55;8.48;;;5.55;;
66384;SDS011;53426;55.872;37.462;2023-03-29T00:50:23;7.78;;;6.50;;
66384;SDS011;53426;55.872;37.462;2023-03-29T00:55:31;4.90;;;4.45;;
66384;SDS011;53426;55.872;37.462;2023-03-29T00:58:06;5.50;;;5.00;;
66384;SDS011;53426;55.872;37.462;2023-03-29T01:00:36;11.85;;;6.10;;
66384;SDS011;53426;55.872;37.462;2023-03-29T01:03:07;6.93;;;5.68;;
66384;SDS011;53426;55.872;37.462;2023-03-29T01:05:39;6.60;;;5.93;;
66384;SDS011;53426;55.872;37.462;2023-03-29T01:08:13;7.22;;;6.05;;
66384;SDS011;53426;55.872;37.462;2023-03-29T01:13:52;11.48;;;5.65;;
66384;SDS011;53426;55.872;37.462;2023-03-29T01:16:35;9.23;;;5.97;;
66384;SDS011;53426;55.872;37.462;2023-03-29T01:19:06;5.93;;;5.35;;
66384;SDS011;53426;55.872;37.462;2023-03-29T01:30:17;8.15;;;6.57;;
66384;SDS011;53426;55.872;37.462;2023-03-29T01:32:56;7.90;;;5.30;;
66384;SDS011;53426;55.872;37.462;2023-03-29T01:38:24;5.60;;;5.10;;
66384;SDS011;53426;55.872;37.462;2023-03-29T01:40:55;6.72;;;5.32;;
66384;SDS011;53426;55.872;37.462;2023-03-29T01:43:33;8.57;;;5.65;;
66384;SDS011;53426;55.872;37.462;2023-03-29T01:49:12;7.25;;;5.90;;
66384;SDS011;53426;55.872;37.462;2023-03-29T01:51:53;7.65;;;5.93;;
66384;SDS011;53426;55.872;37.462;2023-03-29T01:54:27;7.47;;;5.85;;
66384;SDS011;53426;55.872;37.462;2023-03-29T01:56:59;8.35;;;5.90;;
66384;SDS011;53426;55.872;37.462;2023-03-29T01:59:30;6.40;;;5.35;;
66384;SDS011;53426;55.872;37.462;2023-03-29T02:01:59;9.48;;;5.82;;
66384;SDS011;53426;55.872;37.462;2023-03-29T02:04:29;4.93;;;4.53;;
66384;SDS011;53426;55.872;37.462;2023-03-29T02:06:59;10.65;;;4.85;;
66384;SDS011;53426;55.872;37.462;2023-03-29T02:09:29;6.03;;;5.40;;
66384;SDS011;53426;55.872;37.462;2023-03-29T02:11:57;10.25;;;5.90;;
66384;SDS011;53426;55.872;37.462;2023-03-29T02:14:25;8.18;;;5.20;;
66384;SDS011;53426;55.872;37.462;2023-03-29T02:17:19;6.38;;;5.28;;
66384;SDS011;53426;55.872;37.462;2023-03-29T02:19:46;6.95;;;6.07;;
66384;SDS011;53426;55.872;37.462;2023-03-29T02:22:14;6.30;;;5.70;;
66384;SDS011;53426;55.872;37.462;2023-03-29T02:24:44;6.53;;;5.68;;
66384;SDS011;53426;55.872;37.462;2023-03-29T02:27:12;7.78;;;5.85;;
66384;SDS011;53426;55.872;37.462;2023-03-29T02:29:39;5.65;;;4.72;;
66384;SDS011;53426;55.872;37.462;2023-03-29T02:32:11;13.32;;;6.05;;
66384;SDS011;53426;55.872;37.462;2023-03-29T02:34:45;7.82;;;5.40;;
66384;SDS011;53426;55.872;37.462;2023-03-29T02:37:19;8.32;;;5.20;;
66384;SDS011;53426;55.872;37.462;2023-03-29T02:39:49;10.23;;;5.70;;
66384;SDS011;53426;55.872;37.462;2023-03-29T02:42:16;6.32;;;5.72;;
66384;SDS011;53426;55.872;37.462;2023-03-29T02:44:45;6.70;;;6.00;;
66384;SDS011;53426;55.872;37.462;2023-03-29T02:47:23;5.30;;;4.80;;
66384;SDS011;53426;55.872;37.462;2023-03-29T02:49:53;5.43;;;4.93;;
66384;SDS011;53426;55.872;37.462;2023-03-29T02:52:20;6.03;;;5.47;;
66384;SDS011;53426;55.872;37.462;2023-03-29T02:54:50;8.35;;;4.97;;
66384;SDS011;53426;55.872;37.462;2023-03-29T02:57:20;8.15;;;5.85;;
66384;SDS011;53426;55.872;37.462;2023-03-29T02:59:54;6.15;;;5.25;;
66384;SDS011;53426;55.872;37.462;2023-03-29T03:02:21;7.78;;;5.05;;
66384;SDS011;53426;55.872;37.462;2023-03-29T03:04:51;6.10;;;5.03;;
66384;SDS011;53426;55.872;37.462;2023-03-29T03:07:18;5.80;;;5.15;;
66384;SDS011;53426;55.872;37.462;2023-03-29T03:09:45;5.70;;;5.20;;
66384;SDS011;53426;55.872;37.462;2023-03-29T03:12:12;6.30;;;5.70;;
66384;SDS011;53426;55.872;37.462;2023-03-29T03:14:38;7.10;;;5.68;;
66384;SDS011;53426;55.872;37.462;2023-03-29T03:17:04;6.03;;;5.45;;
66384;SDS011;53426;55.872;37.462;2023-03-29T03:19:31;7.63;;;5.60;;
66384;SDS011;53426;55.872;37.462;2023-03-29T03:21:57;4.75;;;4.25;;
66384;SDS011;53426;55.872;37.462;2023-03-29T03:24:23;7.05;;;5.25;;
66384;SDS011;53426;55.872;37.462;2023-03-29T03:26:50;7.82;;;6.18;;
66384;SDS011;53426;55.872;37.462;2023-03-29T03:29:17;6.97;;;5.32;;
66384;SDS011;53426;55.872;37.462;2023-03-29T03:32:03;8.10;;;5.22;;
66384;SDS011;53426;55.872;37.462;2023-03-29T03:34:47;14.63;;;5.65;;
66384;SDS011;53426;55.872;37.462;2023-03-29T03:37:13;7.47;;;5.25;;
66384;SDS011;53426;55.872;37.462;2023-03-29T03:39:40;11.20;;;5.28;;
66384;SDS011;53426;55.872;37.462;2023-03-29T03:42:08;8.40;;;4.90;;
66384;SDS011;53426;55.872;37.462;2023-03-29T03:44:39;5.78;;;5.00;;
66384;SDS011;53426;55.872;37.462;2023-03-29T03:47:25;5.82;;;5.00;;
66384;SDS011;53426;55.872;37.462;2023-03-29T03:49:53;6.60;;;5.53;;
66384;SDS011;53426;55.872;37.462;2023-03-29T03:52:22;5.35;;;4.95;;
66384;SDS011;53426;55.872;37.462;2023-03-29T03:54:49;6.30;;;5.22;;
66384;SDS011;53426;55.872;37.462;2023-03-29T03:57:34;7.43;;;5.18;;
66384;SDS011;53426;55.872;37.462;2023-03-29T04:00:05;17.95;;;5.72;;
66384;SDS011;53426;55.872;37.462;2023-03-29T04:02:45;13.75;;;5.10;;
66384;SDS011;53426;55.872;37.462;2023-03-29T04:05:12;4.93;;;4.53;;
66384;SDS011;53426;55.872;37.462;2023-03-29T04:07:39;6.05;;;5.18;;
66384;SDS011;53426;55.872;37.462;2023-03-29T04:10:41;5.68;;;5.18;;
66384;SDS011;53426;55.872;37.462;2023-03-29T04:13:14;7.07;;;5.13;;
66384;SDS011;53426;55.872;37.462;2023-03-29T04:15:59;5.47;;;5.03;;
66384;SDS011;53426;55.872;37.462;2023-03-29T04:18:25;6.25;;;5.65;;
66384;SDS011;53426;55.872;37.462;2023-03-29T04:20:55;8.30;;;4.65;;
66384;SDS011;53426;55.872;37.462;2023-03-29T04:23:22;7.55;;;4.03;;
66384;SDS011;53426;55.872;37.462;2023-03-29T04:25:48;9.88;;;4.45;;
66384;SDS011;53426;55.872;37.462;2023-03-29T04:28:37;5.15;;;4.68;;
66384;SDS011;53426;55.872;37.462;2023-03-29T04:31:11;6.28;;;4.65;;
66384;SDS011;53426;55.872;37.462;2023-03-29T04:34:05;7.35;;;4.53;;
66384;SDS011;53426;55.872;37.462;2023-03-29T04:36:31;5.28;;;4.55;;
66384;SDS011;53426;55.872;37.462;2023-03-29T04:38:57;6.20;;;4.43;;
66384;SDS011;53426;55.872;37.462;2023-03-29T04:41:26;6.03;;;5.05;;
66384;SDS011;53426;55.872;37.462;2023-03-29T04:44:25;6.30;;;5.25;;
66384;SDS011;53426;55.872;37.462;2023-03-29T04:46:51;9.23;;;4.78;;
66384;SDS011;53426;55.872;37.462;2023-03-29T04:49:49;8.43;;;5.35;;
66384;SDS011;53426;55.872;37.462;2023-03-29T04:52:28;4.97;;;4.57;;
66384;SDS011;53426;55.872;37.462;2023-03-29T04:54:58;5.10;;;4.60;;
66384;SDS011;53426;55.872;37.462;2023-03-29T04:57:52;11.52;;;4.78;;
66384;SDS011;53426;55.872;37.462;2023-03-29T05:00:31;5.30;;;4.80;;
66384;SDS011;53426;55.872;37.462;2023-03-29T05:03:16;5.00;;;4.37;;
66384;SDS011;53426;55.872;37.462;2023-03-29T05:06:03;5.93;;;5.32;;
66384;SDS011;53426;55.872;37.462;2023-03-29T05:08:32;4.93;;;4.35;;
66384;SDS011;53426;55.872;37.462;2023-03-29T05:11:20;9.20;;;4.63;;
66384;SDS011;53426;55.872;37.462;2023-03-29T05:13:48;6.18;;;4.35;;
66384;SDS011;53426;55.872;37.462;2023-03-29T05:16:15;9.95;;;4.95;;
66384;SDS011;53426;55.872;37.462;2023-03-29T05:18:42;10.43;;;5.13;;
66384;SDS011;53426;55.872;37.462;2023-03-29T05:21:09;9.60;;;4.22;;
66384;SDS011;53426;55.872;37.462;2023-03-29T05:23:36;6.03;;;4.45;;
66384;SDS011;53426;55.872;37.462;2023-03-29T05:26:28;8.75;;;4.70;;
66384;SDS011;53426;55.872;37.462;2023-03-29T05:28:54;6.00;;;4.38;;
66384;SDS011;53426;55.872;37.462;2023-03-29T05:31:20;8.80;;;4.43;;
66384;SDS011;53426;55.872;37.462;2023-03-29T05:33:52;7.28;;;4.18;;
66384;SDS011;53426;55.872;37.462;2023-03-29T05:36:18;4.30;;;3.97;;
66384;SDS011;53426;55.872;37.462;2023-03-29T05:38:47;4.95;;;4.20;;
66384;SDS011;53426;55.872;37.462;2023-03-29T05:41:14;7.47;;;4.38;;
66384;SDS011;53426;55.872;37.462;2023-03-29T05:44:11;5.40;;;4.32;;
66384;SDS011;53426;55.872;37.462;2023-03-29T05:46:39;5.45;;;4.32;;
66384;SDS011;53426;55.872;37.462;2023-03-29T05:49:05;9.88;;;4.05;;
66384;SDS011;53426;55.872;37.462;2023-03-29T05:52:09;5.38;;;4.38;;
66384;SDS011;53426;55.872;37.462;2023-03-29T05:54:37;9.43;;;4.07;;
66384;SDS011;53426;55.872;37.462;2023-03-29T05:57:04;8.65;;;4.30;;
66384;SDS011;53426;55.872;37.462;2023-03-29T05:59:33;5.90;;;3.63;;
66384;SDS011;53426;55.872;37.462;2023-03-29T06:01:59;5.32;;;4.43;;
66384;SDS011;53426;55.872;37.462;2023-03-29T06:04:28;11.00;;;4.38;;
66384;SDS011;53426;55.872;37.462;2023-03-29T06:07:14;4.63;;;4.20;;
66384;SDS011;53426;55.872;37.462;2023-03-29T06:09:44;8.55;;;4.30;;
66384;SDS011;53426;55.872;37.462;2023-03-29T06:12:10;4.95;;;4.25;;
66384;SDS011;53426;55.872;37.462;2023-03-29T06:14:55;7.07;;;4.43;;
66384;SDS011;53426;55.872;37.462;2023-03-29T06:17:54;5.32;;;4.32;;
66384;SDS011;53426;55.872;37.462;2023-03-29T06:20:20;4.60;;;4.13;;
66384;SDS011;53426;55.872;37.462;2023-03-29T06:22:52;8.75;;;4.10;;
66384;SDS011;53426;55.872;37.462;2023-03-29T06:25:19;4.75;;;4.00;;
66384;SDS011;53426;55.872;37.462;2023-03-29T06:27:47;9.75;;;4.00;;
66384;SDS011;53426;55.872;37.462;2023-03-29T06:30:14;13.80;;;4.50;;
66384;SDS011;53426;55.872;37.462;2023-03-29T06:32:45;12.43;;;4.53;;
66384;SDS011;53426;55.872;37.462;2023-03-29T06:35:22;10.15;;;4.43;;
66384;SDS011;53426;55.872;37.462;2023-03-29T06:37:54;4.55;;;3.88;;
66384;SDS011;53426;55.872;37.462;2023-03-29T06:40:47;12.65;;;4.43;;
66384;SDS011;53426;55.872;37.462;2023-03-29T06:43:14;5.93;;;4.05;;
66384;SDS011;53426;55.872;37.462;2023-03-29T06:45:52;10.48;;;4.72;;
66384;SDS011;53426;55.872;37.462;2023-03-29T06:48:30;13.52;;;5.28;;
66384;SDS011;53426;55.872;37.462;2023-03-29T06:50:56;10.20;;;4.22;;
66384;SDS011;53426;55.872;37.462;2023-03-29T06:53:24;4.25;;;3.85;;
66384;SDS011;53426;55.872;37.462;2023-03-29T06:55:58;5.50;;;4.20;;
66384;SDS011;53426;55.872;37.462;2023-03-29T06:58:44;10.05;;;3.97;;
66384;SDS011;53426;55.872;37.462;2023-03-29T07:01:31;13.80;;;3.58;;
66384;SDS011;53426;55.872;37.462;2023-03-29T07:04:07;9.55;;;4.20;;
66384;SDS011;53426;55.872;37.462;2023-03-29T07:06:54;4.50;;;3.65;;
66384;SDS011;53426;55.872;37.462;2023-03-29T07:09:28;4.13;;;3.60;;
66384;SDS011;53426;55.872;37.462;2023-03-29T07:15:11;18.67;;;4.43;;
66384;SDS011;53426;55.872;37.462;2023-03-29T07:17:56;15.80;;;4.30;;
66384;SDS011;53426;55.872;37.462;2023-03-29T07:20:22;3.95;;;3.50;;
66384;SDS011;53426;55.872;37.462;2023-03-29T07:23:04;4.35;;;4.05;;
66384;SDS011;53426;55.872;37.462;2023-03-29T07:25:30;5.47;;;3.95;;
66384;SDS011;53426;55.872;37.462;2023-03-29T07:27:57;11.90;;;4.20;;
66384;SDS011;53426;55.872;37.462;2023-03-29T07:30:25;4.20;;;3.80;;
66384;SDS011;53426;55.872;37.462;2023-03-29T07:32:57;5.65;;;4.28;;
66384;SDS011;53426;55.872;37.462;2023-03-29T07:35:31;7.25;;;3.85;;
66384;SDS011;53426;55.872;37.462;2023-03-29T07:37:57;4.50;;;4.10;;
66384;SDS011;53426;55.872;37.462;2023-03-29T07:40:24;7.07;;;4.80;;
66384;SDS011;53426;55.872;37.462;2023-03-29T07:43:00;4.57;;;3.80;;
66384;SDS011;53426;55.872;37.462;2023-03-29T07:45:34;5.18;;;4.05;;
66384;SDS011;53426;55.872;37.462;2023-03-29T07:48:18;4.93;;;3.97;;
66384;SDS011;53426;55.872;37.462;2023-03-29T07:50:49;5.32;;;4.65;;
66384;SDS011;53426;55.872;37.462;2023-03-29T07:53:18;5.13;;;4.65;;
66384;SDS011;53426;55.872;37.462;2023-03-29T07:55:44;5.78;;;5.28;;
66384;SDS011;53426;55.872;37.462;2023-03-29T07:58:35;4.80;;;4.32;;
66384;SDS011;53426;55.872;37.462;2023-03-29T08:01:02;6.13;;;4.22;;
66384;SDS011;53426;55.872;37.462;2023-03-29T08:03:51;4.68;;;4.13;;
66384;SDS011;53426;55.872;37.462;2023-03-29T08:06:19;12.40;;;4.93;;
66384;SDS011;53426;55.872;37.462;2023-03-29T08:08:46;4.78;;;4.13;;
66384;SDS011;53426;55.872;37.462;2023-03-29T08:11:15;6.18;;;4.72;;
66384;SDS011;53426;55.872;37.462;2023-03-29T08:13:53;5.45;;;4.32;;
66384;SDS011;53426;55.872;37.462;2023-03-29T08:16:22;3.97;;;3.50;;
66384;SDS011;53426;55.872;37.462;2023-03-29T08:18:56;5.85;;;4.25;;
66384;SDS011;53426;55.872;37.462;2023-03-29T08:21:26;4.15;;;3.85;;
66384;SDS011;53426;55.872;37.462;2023-03-29T08:23:52;3.95;;;3.45;;
66384;SDS011;53426;55.872;37.462;2023-03-29T08:26:32;5.38;;;3.88;;
66384;SDS011;53426;55.872;37.462;2023-03-29T08:28:59;4.30;;;3.90;;
66384;SDS011;53426;55.872;37.462;2023-03-29T08:31:26;5.03;;;4.10;;
66384;SDS011;53426;55.872;37.462;2023-03-29T08:33:52;5.80;;;4.80;;
66384;SDS011;53426;55.872;37.462;2023-03-29T08:36:50;4.40;;;4.00;;
66384;SDS011;53426;55.872;37.462;2023-03-29T08:39:33;5.18;;;4.47;;
66384;SDS011;53426;55.872;37.462;2023-03-29T08:50:49;7.20;;;4.03;;
66384;SDS011;53426;55.872;37.462;2023-03-29T08:53:29;7.72;;;4.10;;
66384;SDS011;53426;55.872;37.462;2023-03-29T08:56:07;6.43;;;3.80;;
66384;SDS011;53426;55.872;37.462;2023-03-29T08:58:59;5.53;;;3.65;;
66384;SDS011;53426;55.872;37.462;2023-03-29T09:01:32;6.43;;;4.13;;
66384;SDS011;53426;55.872;37.462;2023-03-29T09:06:50;5.95;;;4.10;;
66384;SDS011;53426;55.872;37.462;2023-03-29T09:09:21;4.80;;;4.38;;
66384;SDS011;53426;55.872;37.462;2023-03-29T09:11:59;6.10;;;4.40;;
66384;SDS011;53426;55.872;37.462;2023-03-29T09:22:58;6.18;;;4.70;;
66384;SDS011;53426;55.872;37.462;2023-03-29T09:25:51;7.32;;;4.45;;
66384;SDS011;53426;55.872;37.462;2023-03-29T09:31:40;6.95;;;5.07;;
66384;SDS011;53426;55.872;37.462;2023-03-29T09:34:20;4.88;;;4.45;;
66384;SDS011;53426;55.872;37.462;2023-03-29T09:37:01;9.70;;;4.47;;
66384;SDS011;53426;55.872;37.462;2023-03-29T09:39:33;12.57;;;4.97;;
66384;SDS011;53426;55.872;37.462;2023-03-29T09:42:07;6.17;;;5.13;;
66384;SDS011;53426;55.872;37.462;2023-03-29T09:44:47;9.23;;;5.82;;
66384;SDS011;53426;55.872;37.462;2023-03-29T09:47:28;9.63;;;5.43;;
66384;SDS011;53426;55.872;37.462;2023-03-29T09:50:13;10.73;;;6.50;;
66384;SDS011;53426;55.872;37.462;2023-03-29T09:52:44;6.65;;;5.68;;
66384;SDS011;53426;55.872;37.462;2023-03-29T09:55:18;6.57;;;5.93;;
66384;SDS011;53426;55.872;37.462;2023-03-29T09:58:00;10.05;;;6.22;;
66384;SDS011;53426;55.872;37.462;2023-03-29T10:00:38;8.57;;;6.35;;
66384;SDS011;53426;55.872;37.462;2023-03-29T10:03:04;21.35;;;6.35;;
66384;SDS011;53426;55.872;37.462;2023-03-29T10:05:44;12.95;;;7.15;;
66384;SDS011;53426;55.872;37.462;2023-03-29T10:08:24;13.30;;;7.15;;
66384;SDS011;53426;55.872;37.462;2023-03-29T10:10:57;9.20;;;7.07;;
66384;SDS011;53426;55.872;37.462;2023-03-29T10:13:28;11.50;;;7.47;;
66384;SDS011;53426;55.872;37.462;2023-03-29T10:16:04;6.63;;;5.05;;
66384;SDS011;53426;55.872;37.462;2023-03-29T10:21:03;17.20;;;6.88;;
66384;SDS011;53426;55.872;37.462;2023-03-29T10:23:36;15.18;;;6.35;;
66384;SDS011;53426;55.872;37.462;2023-03-29T10:26:03;6.97;;;6.05;;
66384;SDS011;53426;55.872;37.462;2023-03-29T10:28:32;9.68;;;6.25;;
66384;SDS011;53426;55.872;37.462;2023-03-29T10:31:01;8.45;;;6.15;;
66384;SDS011;53426;55.872;37.462;2023-03-29T10:33:30;9.00;;;6.22;;
66384;SDS011;53426;55.872;37.462;2023-03-29T10:35:58;14.93;;;7.22;;
66384;SDS011;53426;55.872;37.462;2023-03-29T10:38:26;7.72;;;6.85;;
66384;SDS011;53426;55.872;37.462;2023-03-29T10:40:54;9.40;;;7.60;;
66384;SDS011;53426;55.872;37.462;2023-03-29T10:46:09;6.60;;;5.47;;
66384;SDS011;53426;55.872;37.462;2023-03-29T10:48:38;7.85;;;6.72;;
66384;SDS011;53426;55.872;37.462;2023-03-29T10:51:10;10.55;;;6.90;;
66384;SDS011;53426;55.872;37.462;2023-03-29T10:53:38;9.85;;;7.38;;
66384;SDS011;53426;55.872;37.462;2023-03-29T10:56:15;7.13;;;5.50;;
66384;SDS011;53426;55.872;37.462;2023-03-29T11:24:33;8.65;;;7.10;;
66384;SDS011;53426;55.872;37.462;2023-03-29T11:27:37;8.80;;;7.15;;
66384;SDS011;53426;55.872;37.462;2023-03-29T11:41:26;12.10;;;8.65;;
66384;SDS011;53426;55.872;37.462;2023-03-29T11:44:13;12.27;;;8.13;;
66384;SDS011;53426;55.872;37.462;2023-03-29T11:47:00;8.18;;;6.50;;
66384;SDS011;53426;55.872;37.462;2023-03-29T11:54:56;8.60;;;7.70;;
66384;SDS011;53426;55.872;37.462;2023-03-29T11:57:29;10.20;;;7.90;;
66384;SDS011;53426;55.872;37.462;2023-03-29T12:00:04;10.65;;;7.32;;
66384;SDS011;53426;55.872;37.462;2023-03-29T12:02:43;8.80;;;7.55;;
66384;SDS011;53426;55.872;37.462;2023-03-29T12:07:50;11.38;;;7.43;;
66384;SDS011;53426;55.872;37.462;2023-03-29T12:10:38;7.90;;;7.10;;
66384;SDS011;53426;55.872;37.462;2023-03-29T12:15:53;9.95;;;8.02;;
66384;SDS011;53426;55.872;37.462;2023-03-29T12:18:29;11.65;;;7.45;;
66384;SDS011;53426;55.872;37.462;2023-03-29T12:21:01;8.73;;;7.82;;
66384;SDS011;53426;55.872;37.462;2023-03-29T12:23:33;9.68;;;7.95;;
66384;SDS011;53426;55.872;37.462;2023-03-29T12:38:20;8.38;;;6.10;;
66384;SDS011;53426;55.872;37.462;2023-03-29T12:41:24;10.85;;;8.63;;
66384;SDS011;53426;55.872;37.462;2023-03-29T12:44:25;11.85;;;7.22;;
66384;SDS011;53426;55.872;37.462;2023-03-29T12:46:59;6.63;;;6.00;;
66384;SDS011;53426;55.872;37.462;2023-03-29T12:49:27;9.02;;;8.13;;
66384;SDS011;53426;55.872;37.462;2023-03-29T12:51:58;12.20;;;9.15;;
66384;SDS011;53426;55.872;37.462;2023-03-29T12:54:29;11.50;;;9.45;;
66384;SDS011;53426;55.872;37.462;2023-03-29T12:57:00;17.75;;;8.10;;
66384;SDS011;53426;55.872;37.462;2023-03-29T12:59:43;8.65;;;7.57;;
66384;SDS011;53426;55.872;37.462;2023-03-29T13:04:56;13.07;;;9.90;;
66384;SDS011;53426;55.872;37.462;2023-03-29T13:09:53;8.82;;;7.93;;
66384;SDS011;53426;55.872;37.462;2023-03-29T13:12:39;12.50;;;7.82;;
66384;SDS011;53426;55.872;37.462;2023-03-29T13:25:35;8.20;;;6.13;;
66384;SDS011;53426;55.872;37.462;2023-03-29T13:28:17;11.83;;;7.70;;
66384;SDS011;53426;55.872;37.462;2023-03-29T13:42:57;5.22;;;4.47;;
66384;SDS011;53426;55.872;37.462;2023-03-29T13:45:27;10.10;;;6.40;;
66384;SDS011;53426;55.872;37.462;2023-03-29T13:48:01;9.52;;;6.85;;
66384;SDS011;53426;55.872;37.462;2023-03-29T13:53:02;9.90;;;7.43;;
66384;SDS011;53426;55.872;37.462;2023-03-29T13:58:11;9.73;;;8.02;;
66384;SDS011;53426;55.872;37.462;2023-03-29T14:00:50;7.88;;;6.93;;
66384;SDS011;53426;55.872;37.462;2023-03-29T14:03:24;8.05;;;7.10;;
66384;SDS011;53426;55.872;37.462;2023-03-29T14:05:58;10.07;;;7.40;;
66384;SDS011;53426;55.872;37.462;2023-03-29T14:08:46;12.65;;;8.52;;
66384;SDS011;53426;55.872;37.462;2023-03-29T14:13:54;9.15;;;8.13;;
66384;SDS011;53426;55.872;37.462;2023-03-29T14:16:21;10.75;;;8.38;;
66384;SDS011;53426;55.872;37.462;2023-03-29T14:18:52;13.32;;;8.30;;
66384;SDS011;53426;55.872;37.462;2023-03-29T14:21:18;11.23;;;7.90;;
66384;SDS011;53426;55.872;37.462;2023-03-29T14:23:46;8.55;;;7.55;;
66384;SDS011;53426;55.872;37.462;2023-03-29T14:26:19;9.02;;;7.35;;
66384;SDS011;53426;55.872;37.462;2023-03-29T14:28:51;7.80;;;7.10;;
66384;SDS011;53426;55.872;37.462;2023-03-29T14:31:22;10.02;;;7.70;;
66384;SDS011;53426;55.872;37.462;2023-03-29T14:33:50;7.80;;;7.00;;
66384;SDS011;53426;55.872;37.462;2023-03-29T14:36:17;10.80;;;6.65;;
66384;SDS011;53426;55.872;37.462;2023-03-29T14:38:46;9.80;;;7.95;;
66384;SDS011;53426;55.872;37.462;2023-03-29T14:41:15;11.88;;;9.52;;
66384;SDS011;53426;55.872;37.462;2023-03-29T14:43:42;14.18;;;9.57;;
66384;SDS011;53426;55.872;37.462;2023-03-29T14:46:10;10.60;;;8.23;;
66384;SDS011;53426;55.872;37.462;2023-03-29T14:48:45;9.85;;;7.60;;
66384;SDS011;53426;55.872;37.462;2023-03-29T14:51:11;9.55;;;8.55;;
66384;SDS011;53426;55.872;37.462;2023-03-29T14:53:38;12.43;;;8.38;;
66384;SDS011;53426;55.872;37.462;2023-03-29T14:56:07;9.23;;;8.25;;
66384;SDS011;53426;55.872;37.462;2023-03-29T14:58:37;13.32;;;9.98;;
66384;SDS011;53426;55.872;37.462;2023-03-29T15:01:05;11.60;;;9.10;;
66384;SDS011;53426;55.872;37.462;2023-03-29T15:03:49;9.82;;;7.65;;
66384;SDS011;53426;55.872;37.462;2023-03-29T15:06:16;11.52;;;7.95;;
66384;SDS011;53426;55.872;37.462;2023-03-29T15:08:43;12.85;;;7.60;;
66384;SDS011;53426;55.872;37.462;2023-03-29T15:11:14;7.43;;;6.60;;
66384;SDS011;53426;55.872;37.462;2023-03-29T15:14:14;10.35;;;8.32;;
66384;SDS011;53426;55.872;37.462;2023-03-29T15:16:41;11.65;;;8.15;;
66384;SDS011;53426;55.872;37.462;2023-03-29T15:19:12;11.25;;;8.10;;
66384;SDS011;53426;55.872;37.462;2023-03-29T15:21:42;10.57;;;6.88;;
66384;SDS011;53426;55.872;37.462;2023-03-29T15:24:16;8.07;;;6.85;;
66384;SDS011;53426;55.872;37.462;2023-03-29T15:26:56;10.10;;;7.40;;
66384;SDS011;53426;55.872;37.462;2023-03-29T15:29:24;10.93;;;7.07;;
66384;SDS011;53426;55.872;37.462;2023-03-29T15:34:25;12.02;;;7.68;;
66384;SDS011;53426;55.872;37.462;2023-03-29T15:36:52;7.60;;;6.85;;
66384;SDS011;53426;55.872;37.462;2023-03-29T15:39:18;9.57;;;8.02;;
66384;SDS011;53426;55.872;37.462;2023-03-29T15:41:45;9.80;;;7.85;;
66384;SDS011;53426;55.872;37.462;2023-03-29T15:44:14;8.65;;;7.72;;
66384;SDS011;53426;55.872;37.462;2023-03-29T15:46:43;11.43;;;8.15;;
66384;SDS011;53426;55.872;37.462;2023-03-29T15:49:12;9.18;;;8.18;;
66384;SDS011;53426;55.872;37.462;2023-03-29T15:51:39;8.05;;;6.43;;
66384;SDS011;53426;55.872;37.462;2023-03-29T15:54:05;8.88;;;7.95;;
66384;SDS011;53426;55.872;37.462;2023-03-29T15:56:33;8.43;;;7.57;;
66384;SDS011;53426;55.872;37.462;2023-03-29T15:59:05;9.05;;;7.55;;
66384;SDS011;53426;55.872;37.462;2023-03-29T16:01:34;8.75;;;7.95;;
66384;SDS011;53426;55.872;37.462;2023-03-29T16:04:06;10.32;;;8.07;;
66384;SDS011;53426;55.872;37.462;2023-03-29T16:06:37;12.38;;;8.05;;
66384;SDS011;53426;55.872;37.462;2023-03-29T16:09:03;9.32;;;7.78;;
66384;SDS011;53426;55.872;37.462;2023-03-29T16:11:31;9.55;;;8.15;;
66384;SDS011;53426;55.872;37.462;2023-03-29T16:13:57;8.80;;;7.47;;
66384;SDS011;53426;55.872;37.462;2023-03-29T16:16:27;8.20;;;7.28;;
66384;SDS011;53426;55.872;37.462;2023-03-29T16:18:55;10.70;;;7.80;;
66384;SDS011;53426;55.872;37.462;2023-03-29T16:21:41;8.60;;;7.53;;
66384;SDS011;53426;55.872;37.462;2023-03-29T16:24:11;10.63;;;8.93;;
66384;SDS011;53426;55.872;37.462;2023-03-29T16:26:39;8.90;;;8.10;;
66384;SDS011;53426;55.872;37.462;2023-03-29T16:29:05;12.30;;;8.77;;
66384;SDS011;53426;55.872;37.462;2023-03-29T16:31:30;12.77;;;8.05;;
66384;SDS011;53426;55.872;37.462;2023-03-29T16:33:57;11.32;;;8.98;;
66384;SDS011;53426;55.872;37.462;2023-03-29T16:36:23;10.55;;;9.00;;
66384;SDS011;53426;55.872;37.462;2023-03-29T16:38:49;10.80;;;8.63;;
66384;SDS011;53426;55.872;37.462;2023-03-29T16:41:18;14.60;;;9.82;;
66384;SDS011;53426;55.872;37.462;2023-03-29T16:43:44;11.05;;;9.35;;
66384;SDS011;53426;55.872;37.462;2023-03-29T16:46:10;11.77;;;9.43;;
66384;SDS011;53426;55.872;37.462;2023-03-29T16:48:37;11.93;;;8.10;;
66384;SDS011;53426;55.872;37.462;2023-03-29T16:51:04;10.27;;;8.13;;
66384;SDS011;53426;55.872;37.462;2023-03-29T16:53:36;13.85;;;9.70;;
66384;SDS011;53426;55.872;37.462;2023-03-29T16:56:03;15.98;;;10.10;;
66384;SDS011;53426;55.872;37.462;2023-03-29T16:58:29;11.45;;;10.23;;
66384;SDS011;53426;55.872;37.462;2023-03-29T17:04:21;9.90;;;8.18;;
66384;SDS011;53426;55.872;37.462;2023-03-29T17:06:48;13.40;;;9.63;;
66384;SDS011;53426;55.872;37.462;2023-03-29T17:09:14;14.60;;;11.02;;
66384;SDS011;53426;55.872;37.462;2023-03-29T17:11:42;13.45;;;10.10;;
66384;SDS011;53426;55.872;37.462;2023-03-29T17:14:08;12.25;;;10.15;;
66384;SDS011;53426;55.872;37.462;2023-03-29T17:16:34;12.77;;;10.98;;
66384;SDS011;53426;55.872;37.462;2023-03-29T17:19:00;11.65;;;10.40;;
66384;SDS011;53426;55.872;37.462;2023-03-29T17:21:26;12.77;;;10.60;;
66384;SDS011;53426;55.872;37.462;2023-03-29T17:23:53;13.32;;;10.82;;
66384;SDS011;53426;55.872;37.462;2023-03-29T17:26:19;12.48;;;10.45;;
66384;SDS011;53426;55.872;37.462;2023-03-29T17:28:45;13.65;;;11.20;;
66384;SDS011;53426;55.872;37.462;2023-03-29T17:31:11;12.75;;;11.23;;
66384;SDS011;53426;55.872;37.462;2023-03-29T17:33:37;15.57;;;11.68;;
66384;SDS011;53426;55.872;37.462;2023-03-29T17:36:03;14.00;;;11.15;;
66384;SDS011;53426;55.872;37.462;2023-03-29T17:38:29;12.98;;;11.15;;